sensor_id;sensor_type;location;lat;lon;timestamp;temperature;humidity
5059;DHT22;2548;52.050;11.036;2023-05-29T00:00:30;13.60;99.90
5059;DHT22;2548;52.050;11.036;2023-05-29T00:02:59;13.60;99.90
5059;DHT22;2548;52.050;11.036;2023-05-29T00:05:27;13.60;99.90
5059;DHT22;2548;52.050;11.036;2023-05-29T00:07:55;13.50;99.90
5059;DHT22;2548;52.050;11.036;2023-05-29T00:10:22;13.50;99.90
5059;DHT22;2548;52.050;11.036;2023-05-29T00:12:50;13.50;99.90
5059;DHT22;2548;52.050;11.036;2023-05-29T00:15:17;13.50;99.90
5059;DHT22;2548;52.050;11.036;2023-05-29T00:17:45;13.40;99.90
5059;DHT22;2548;52.050;11.036;2023-05-29T00:20:14;13.30;99.90
5059;DHT22;2548;52.050;11.036;2023-05-29T00:22:41;13.20;99.90
5059;DHT22;2548;52.050;11.036;2023-05-29T00:25:09;13.20;99.90
5059;DHT22;2548;52.050;11.036;2023-05-29T00:27:36;13.10;99.90
5059;DHT22;2548;52.050;11.036;2023-05-29T00:30:05;13.10;99.90
5059;DHT22;2548;52.050;11.036;2023-05-29T00:32:32;13.00;99.90
5059;DHT22;2548;52.050;11.036;2023-05-29T00:35:00;12.90;99.90
5059;DHT22;2548;52.050;11.036;2023-05-29T00:37:28;12.90;99.90
5059;DHT22;2548;52.050;11.036;2023-05-29T00:39:56;12.80;99.90
5059;DHT22;2548;52.050;11.036;2023-05-29T00:42:23;12.80;99.90
5059;DHT22;2548;52.050;11.036;2023-05-29T00:44:51;12.70;99.90
5059;DHT22;2548;52.050;11.036;2023-05-29T00:47:18;12.70;99.90
5059;DHT22;2548;52.050;11.036;2023-05-29T00:49:46;12.60;99.90
5059;DHT22;2548;52.050;11.036;2023-05-29T00:52:14;12.60;99.90
5059;DHT22;2548;52.050;11.036;2023-05-29T00:54:44;12.60;99.90
5059;DHT22;2548;52.050;11.036;2023-05-29T00:57:13;12.50;99.90
5059;DHT22;2548;52.050;11.036;2023-05-29T00:59:41;12.50;99.90
5059;DHT22;2548;52.050;11.036;2023-05-29T01:02:09;12.50;99.90
5059;DHT22;2548;52.050;11.036;2023-05-29T01:04:38;12.50;99.90
5059;DHT22;2548;52.050;11.036;2023-05-29T01:07:06;12.50;99.90
5059;DHT22;2548;52.050;11.036;2023-05-29T01:09:35;12.40;99.90
5059;DHT22;2548;52.050;11.036;2023-05-29T01:12:13;12.30;99.90
5059;DHT22;2548;52.050;11.036;2023-05-29T01:14:52;12.10;99.90
5059;DHT22;2548;52.050;11.036;2023-05-29T01:17:26;12.10;99.90
5059;DHT22;2548;52.050;11.036;2023-05-29T01:20:05;12.00;99.90
5059;DHT22;2548;52.050;11.036;2023-05-29T01:22:51;12.00;99.90
5059;DHT22;2548;52.050;11.036;2023-05-29T01:25:24;11.90;99.90
5059;DHT22;2548;52.050;11.036;2023-05-29T01:28:01;11.90;99.90
5059;DHT22;2548;52.050;11.036;2023-05-29T01:30:32;11.90;99.90
5059;DHT22;2548;52.050;11.036;2023-05-29T01:33:00;11.90;99.90
5059;DHT22;2548;52.050;11.036;2023-05-29T01:35:28;11.80;99.90
5059;DHT22;2548;52.050;11.036;2023-05-29T01:37:55;11.80;99.90
5059;DHT22;2548;52.050;11.036;2023-05-29T01:40:23;11.80;99.90
5059;DHT22;2548;52.050;11.036;2023-05-29T01:42:52;11.70;99.90
5059;DHT22;2548;52.050;11.036;2023-05-29T01:45:22;11.60;99.90
5059;DHT22;2548;52.050;11.036;2023-05-29T01:47:50;11.70;99.90
5059;DHT22;2548;52.050;11.036;2023-05-29T01:50:18;11.60;99.90
5059;DHT22;2548;52.050;11.036;2023-05-29T01:52:46;11.60;99.90
5059;DHT22;2548;52.050;11.036;2023-05-29T01:55:14;11.50;99.90
5059;DHT22;2548;52.050;11.036;2023-05-29T01:57:42;11.50;99.90
5059;DHT22;2548;52.050;11.036;2023-05-29T02:00:11;11.50;99.90
5059;DHT22;2548;52.050;11.036;2023-05-29T02:02:43;11.50;99.90
5059;DHT22;2548;52.050;11.036;2023-05-29T02:05:11;11.50;99.90
5059;DHT22;2548;52.050;11.036;2023-05-29T02:07:38;11.50;99.90
5059;DHT22;2548;52.050;11.036;2023-05-29T02:10:06;11.40;99.90
5059;DHT22;2548;52.050;11.036;2023-05-29T02:12:33;11.40;99.90
5059;DHT22;2548;52.050;11.036;2023-05-29T02:15:01;11.30;99.90
5059;DHT22;2548;52.050;11.036;2023-05-29T02:17:29;11.30;99.90
5059;DHT22;2548;52.050;11.036;2023-05-29T02:19:58;11.30;99.90
5059;DHT22;2548;52.050;11.036;2023-05-29T02:22:26;11.20;99.90
5059;DHT22;2548;52.050;11.036;2023-05-29T02:24:54;11.20;99.90
5059;DHT22;2548;52.050;11.036;2023-05-29T02:27:21;11.10;99.90
5059;DHT22;2548;52.050;11.036;2023-05-29T02:29:49;11.10;99.90
5059;DHT22;2548;52.050;11.036;2023-05-29T02:32:16;11.10;99.90
5059;DHT22;2548;52.050;11.036;2023-05-29T02:34:44;11.00;99.90
5059;DHT22;2548;52.050;11.036;2023-05-29T02:37:14;11.00;99.90
5059;DHT22;2548;52.050;11.036;2023-05-29T02:39:41;10.90;99.90
5059;DHT22;2548;52.050;11.036;2023-05-29T02:42:09;10.90;99.90
5059;DHT22;2548;52.050;11.036;2023-05-29T02:44:36;10.90;99.90
5059;DHT22;2548;52.050;11.036;2023-05-29T02:47:04;11.00;99.90
5059;DHT22;2548;52.050;11.036;2023-05-29T02:49:32;10.90;99.90
5059;DHT22;2548;52.050;11.036;2023-05-29T02:51:59;10.90;99.90
5059;DHT22;2548;52.050;11.036;2023-05-29T02:54:28;10.90;99.90
5059;DHT22;2548;52.050;11.036;2023-05-29T02:56:55;10.90;99.90
5059;DHT22;2548;52.050;11.036;2023-05-29T02:59:23;10.70;99.90
5059;DHT22;2548;52.050;11.036;2023-05-29T03:01:50;10.70;99.90
5059;DHT22;2548;52.050;11.036;2023-05-29T03:04:18;10.70;99.90
5059;DHT22;2548;52.050;11.036;2023-05-29T03:06:46;10.70;99.90
5059;DHT22;2548;52.050;11.036;2023-05-29T03:09:14;10.70;99.90
5059;DHT22;2548;52.050;11.036;2023-05-29T03:11:43;10.70;99.90
5059;DHT22;2548;52.050;11.036;2023-05-29T03:14:13;10.60;99.90
5059;DHT22;2548;52.050;11.036;2023-05-29T03:16:41;10.50;99.90
5059;DHT22;2548;52.050;11.036;2023-05-29T03:19:08;10.50;99.90
5059;DHT22;2548;52.050;11.036;2023-05-29T03:21:36;10.50;99.90
5059;DHT22;2548;52.050;11.036;2023-05-29T03:24:04;10.50;99.90
5059;DHT22;2548;52.050;11.036;2023-05-29T03:26:34;10.50;99.90
5059;DHT22;2548;52.050;11.036;2023-05-29T03:29:04;10.50;99.90
5059;DHT22;2548;52.050;11.036;2023-05-29T03:31:33;10.60;99.90
5059;DHT22;2548;52.050;11.036;2023-05-29T03:34:01;10.60;99.90
5059;DHT22;2548;52.050;11.036;2023-05-29T03:36:35;10.60;99.90
5059;DHT22;2548;52.050;11.036;2023-05-29T03:39:03;10.50;99.90
5059;DHT22;2548;52.050;11.036;2023-05-29T03:41:31;10.60;99.90
5059;DHT22;2548;52.050;11.036;2023-05-29T03:43:58;10.60;99.90
5059;DHT22;2548;52.050;11.036;2023-05-29T03:46:29;10.60;99.90
5059;DHT22;2548;52.050;11.036;2023-05-29T03:48:57;10.60;99.90
5059;DHT22;2548;52.050;11.036;2023-05-29T03:51:24;10.60;99.90
5059;DHT22;2548;52.050;11.036;2023-05-29T03:53:54;10.60;99.90
5059;DHT22;2548;52.050;11.036;2023-05-29T03:56:22;10.60;99.90
5059;DHT22;2548;52.050;11.036;2023-05-29T03:58:50;10.60;99.90
5059;DHT22;2548;52.050;11.036;2023-05-29T04:01:17;10.60;99.90
5059;DHT22;2548;52.050;11.036;2023-05-29T04:03:46;10.70;99.90
5059;DHT22;2548;52.050;11.036;2023-05-29T04:06:14;10.70;99.90
5059;DHT22;2548;52.050;11.036;2023-05-29T04:08:42;10.80;99.90
5059;DHT22;2548;52.050;11.036;2023-05-29T04:11:10;10.90;99.90
5059;DHT22;2548;52.050;11.036;2023-05-29T04:13:39;10.90;99.90
5059;DHT22;2548;52.050;11.036;2023-05-29T04:16:07;10.90;99.90
5059;DHT22;2548;52.050;11.036;2023-05-29T04:18:35;10.90;99.90
5059;DHT22;2548;52.050;11.036;2023-05-29T04:21:04;11.00;99.90
5059;DHT22;2548;52.050;11.036;2023-05-29T04:23:32;11.10;99.90
5059;DHT22;2548;52.050;11.036;2023-05-29T04:25:59;11.10;99.90
5059;DHT22;2548;52.050;11.036;2023-05-29T04:28:28;11.20;99.90
5059;DHT22;2548;52.050;11.036;2023-05-29T04:30:56;11.20;99.90
5059;DHT22;2548;52.050;11.036;2023-05-29T04:33:25;11.20;99.90
5059;DHT22;2548;52.050;11.036;2023-05-29T04:35:54;11.20;99.90
5059;DHT22;2548;52.050;11.036;2023-05-29T04:38:23;11.20;99.90
5059;DHT22;2548;52.050;11.036;2023-05-29T04:40:53;11.20;99.90
5059;DHT22;2548;52.050;11.036;2023-05-29T04:43:24;11.20;99.90
5059;DHT22;2548;52.050;11.036;2023-05-29T04:46:01;11.20;99.90
5059;DHT22;2548;52.050;11.036;2023-05-29T04:48:30;11.40;99.90
5059;DHT22;2548;52.050;11.036;2023-05-29T04:50:58;11.50;99.90
5059;DHT22;2548;52.050;11.036;2023-05-29T04:53:27;11.60;99.90
5059;DHT22;2548;52.050;11.036;2023-05-29T04:55:56;11.60;99.90
5059;DHT22;2548;52.050;11.036;2023-05-29T04:58:25;11.60;99.90
5059;DHT22;2548;52.050;11.036;2023-05-29T05:00:53;11.70;99.90
5059;DHT22;2548;52.050;11.036;2023-05-29T05:03:23;11.80;99.90
5059;DHT22;2548;52.050;11.036;2023-05-29T05:05:51;11.90;99.90
5059;DHT22;2548;52.050;11.036;2023-05-29T05:08:19;11.90;99.90
5059;DHT22;2548;52.050;11.036;2023-05-29T05:10:48;11.90;99.90
5059;DHT22;2548;52.050;11.036;2023-05-29T05:13:16;12.10;99.90
5059;DHT22;2548;52.050;11.036;2023-05-29T05:15:44;12.10;99.90
5059;DHT22;2548;52.050;11.036;2023-05-29T05:18:11;12.10;99.90
5059;DHT22;2548;52.050;11.036;2023-05-29T05:20:40;12.20;99.90
5059;DHT22;2548;52.050;11.036;2023-05-29T05:23:08;12.30;99.90
5059;DHT22;2548;52.050;11.036;2023-05-29T05:25:36;12.40;99.90
5059;DHT22;2548;52.050;11.036;2023-05-29T05:28:05;12.50;99.90
5059;DHT22;2548;52.050;11.036;2023-05-29T05:30:34;12.50;99.90
5059;DHT22;2548;52.050;11.036;2023-05-29T05:33:02;12.60;99.90
5059;DHT22;2548;52.050;11.036;2023-05-29T05:35:30;12.70;99.90
5059;DHT22;2548;52.050;11.036;2023-05-29T05:37:57;12.90;99.90
5059;DHT22;2548;52.050;11.036;2023-05-29T05:40:25;13.00;99.90
5059;DHT22;2548;52.050;11.036;2023-05-29T05:42:59;13.10;99.90
5059;DHT22;2548;52.050;11.036;2023-05-29T05:45:50;13.10;99.90
5059;DHT22;2548;52.050;11.036;2023-05-29T05:48:18;13.10;99.90
5059;DHT22;2548;52.050;11.036;2023-05-29T05:50:46;13.20;99.90
5059;DHT22;2548;52.050;11.036;2023-05-29T05:53:14;13.30;99.90
5059;DHT22;2548;52.050;11.036;2023-05-29T05:55:43;13.40;99.90
5059;DHT22;2548;52.050;11.036;2023-05-29T05:58:10;13.40;99.90
5059;DHT22;2548;52.050;11.036;2023-05-29T06:00:39;13.40;99.90
5059;DHT22;2548;52.050;11.036;2023-05-29T06:03:08;13.50;99.90
5059;DHT22;2548;52.050;11.036;2023-05-29T06:05:52;13.50;99.90
5059;DHT22;2548;52.050;11.036;2023-05-29T06:08:20;13.50;99.90
5059;DHT22;2548;52.050;11.036;2023-05-29T06:10:48;13.60;99.90
5059;DHT22;2548;52.050;11.036;2023-05-29T06:13:16;13.70;99.90
5059;DHT22;2548;52.050;11.036;2023-05-29T06:15:48;13.60;99.90
5059;DHT22;2548;52.050;11.036;2023-05-29T06:18:17;13.70;99.90
5059;DHT22;2548;52.050;11.036;2023-05-29T06:20:45;13.80;99.90
5059;DHT22;2548;52.050;11.036;2023-05-29T06:23:12;13.80;99.90
5059;DHT22;2548;52.050;11.036;2023-05-29T06:25:40;13.80;99.90
5059;DHT22;2548;52.050;11.036;2023-05-29T06:28:08;13.90;99.90
5059;DHT22;2548;52.050;11.036;2023-05-29T06:30:35;14.00;99.90
5059;DHT22;2548;52.050;11.036;2023-05-29T06:33:06;14.10;99.90
5059;DHT22;2548;52.050;11.036;2023-05-29T06:35:37;14.20;99.90
5059;DHT22;2548;52.050;11.036;2023-05-29T06:38:04;14.40;99.90
5059;DHT22;2548;52.050;11.036;2023-05-29T06:40:32;14.50;99.90
5059;DHT22;2548;52.050;11.036;2023-05-29T06:43:00;14.70;99.90
5059;DHT22;2548;52.050;11.036;2023-05-29T06:45:45;14.70;99.90
5059;DHT22;2548;52.050;11.036;2023-05-29T06:48:13;14.80;99.90
5059;DHT22;2548;52.050;11.036;2023-05-29T06:50:43;14.90;99.90
5059;DHT22;2548;52.050;11.036;2023-05-29T06:53:31;15.00;99.90
5059;DHT22;2548;52.050;11.036;2023-05-29T06:56:00;15.00;99.90
5059;DHT22;2548;52.050;11.036;2023-05-29T06:58:29;15.10;99.90
5059;DHT22;2548;52.050;11.036;2023-05-29T07:00:57;15.20;99.90
5059;DHT22;2548;52.050;11.036;2023-05-29T07:03:31;15.40;99.90
5059;DHT22;2548;52.050;11.036;2023-05-29T07:06:03;15.50;99.90
5059;DHT22;2548;52.050;11.036;2023-05-29T07:08:32;15.60;99.90
5059;DHT22;2548;52.050;11.036;2023-05-29T07:10:59;15.80;99.90
5059;DHT22;2548;52.050;11.036;2023-05-29T07:13:27;16.00;99.90
5059;DHT22;2548;52.050;11.036;2023-05-29T07:15:55;16.10;99.90
5059;DHT22;2548;52.050;11.036;2023-05-29T07:18:29;16.30;99.90
5059;DHT22;2548;52.050;11.036;2023-05-29T07:20:57;16.30;99.90
5059;DHT22;2548;52.050;11.036;2023-05-29T07:23:25;16.40;99.90
5059;DHT22;2548;52.050;11.036;2023-05-29T07:25:53;16.60;99.90
5059;DHT22;2548;52.050;11.036;2023-05-29T07:28:23;16.70;99.90
5059;DHT22;2548;52.050;11.036;2023-05-29T07:30:52;16.90;99.90
5059;DHT22;2548;52.050;11.036;2023-05-29T07:33:20;17.10;99.90
5059;DHT22;2548;52.050;11.036;2023-05-29T07:35:47;17.00;99.90
5059;DHT22;2548;52.050;11.036;2023-05-29T07:38:15;17.10;99.90
5059;DHT22;2548;52.050;11.036;2023-05-29T07:40:44;17.20;99.90
5059;DHT22;2548;52.050;11.036;2023-05-29T07:43:25;17.40;99.90
5059;DHT22;2548;52.050;11.036;2023-05-29T07:45:57;17.50;99.90
5059;DHT22;2548;52.050;11.036;2023-05-29T07:48:25;17.70;99.90
5059;DHT22;2548;52.050;11.036;2023-05-29T07:50:53;17.90;99.90
5059;DHT22;2548;52.050;11.036;2023-05-29T07:53:21;17.80;99.90
5059;DHT22;2548;52.050;11.036;2023-05-29T07:55:50;17.90;99.90
5059;DHT22;2548;52.050;11.036;2023-05-29T07:58:18;18.10;99.90
5059;DHT22;2548;52.050;11.036;2023-05-29T08:00:45;18.00;99.90
5059;DHT22;2548;52.050;11.036;2023-05-29T08:03:14;18.10;99.90
5059;DHT22;2548;52.050;11.036;2023-05-29T08:06:00;18.20;99.90
5059;DHT22;2548;52.050;11.036;2023-05-29T08:08:29;18.40;99.90
5059;DHT22;2548;52.050;11.036;2023-05-29T08:10:59;18.50;99.90
5059;DHT22;2548;52.050;11.036;2023-05-29T08:13:26;18.60;99.90
5059;DHT22;2548;52.050;11.036;2023-05-29T08:15:55;18.80;99.90
5059;DHT22;2548;52.050;11.036;2023-05-29T08:18:26;18.70;99.90
5059;DHT22;2548;52.050;11.036;2023-05-29T08:20:54;18.80;99.90
5059;DHT22;2548;52.050;11.036;2023-05-29T08:23:22;18.90;99.90
5059;DHT22;2548;52.050;11.036;2023-05-29T08:25:49;19.00;99.90
5059;DHT22;2548;52.050;11.036;2023-05-29T08:28:18;19.00;99.90
5059;DHT22;2548;52.050;11.036;2023-05-29T08:30:46;19.10;99.90
5059;DHT22;2548;52.050;11.036;2023-05-29T08:33:13;19.20;99.90
5059;DHT22;2548;52.050;11.036;2023-05-29T08:35:41;19.20;99.90
5059;DHT22;2548;52.050;11.036;2023-05-29T08:38:09;19.30;99.90
5059;DHT22;2548;52.050;11.036;2023-05-29T08:40:37;19.50;99.90
5059;DHT22;2548;52.050;11.036;2023-05-29T08:43:10;19.50;99.90
5059;DHT22;2548;52.050;11.036;2023-05-29T08:45:42;19.50;99.90
5059;DHT22;2548;52.050;11.036;2023-05-29T08:48:14;19.60;99.90
5059;DHT22;2548;52.050;11.036;2023-05-29T08:50:44;19.70;99.90
5059;DHT22;2548;52.050;11.036;2023-05-29T08:53:13;19.70;99.90
5059;DHT22;2548;52.050;11.036;2023-05-29T08:55:41;19.80;99.90
5059;DHT22;2548;52.050;11.036;2023-05-29T08:58:09;19.70;99.90
5059;DHT22;2548;52.050;11.036;2023-05-29T09:00:40;19.80;99.90
5059;DHT22;2548;52.050;11.036;2023-05-29T09:03:08;19.90;99.90
5059;DHT22;2548;52.050;11.036;2023-05-29T09:05:39;20.00;99.90
5059;DHT22;2548;52.050;11.036;2023-05-29T09:08:10;20.00;99.90
5059;DHT22;2548;52.050;11.036;2023-05-29T09:10:40;19.90;99.90
5059;DHT22;2548;52.050;11.036;2023-05-29T09:13:09;20.20;99.90
5059;DHT22;2548;52.050;11.036;2023-05-29T09:15:38;20.40;99.90
5059;DHT22;2548;52.050;11.036;2023-05-29T09:18:08;20.40;99.90
5059;DHT22;2548;52.050;11.036;2023-05-29T09:20:36;20.40;99.90
5059;DHT22;2548;52.050;11.036;2023-05-29T09:23:05;20.60;99.90
5059;DHT22;2548;52.050;11.036;2023-05-29T09:25:41;20.60;99.90
5059;DHT22;2548;52.050;11.036;2023-05-29T09:28:12;20.70;99.90
5059;DHT22;2548;52.050;11.036;2023-05-29T09:30:40;20.40;99.90
5059;DHT22;2548;52.050;11.036;2023-05-29T09:33:10;20.20;99.90
5059;DHT22;2548;52.050;11.036;2023-05-29T09:35:40;19.80;99.90
5059;DHT22;2548;52.050;11.036;2023-05-29T09:38:09;19.80;99.90
5059;DHT22;2548;52.050;11.036;2023-05-29T09:40:41;19.90;99.90
5059;DHT22;2548;52.050;11.036;2023-05-29T09:43:14;19.90;99.90
5059;DHT22;2548;52.050;11.036;2023-05-29T09:45:47;20.00;99.90
5059;DHT22;2548;52.050;11.036;2023-05-29T09:48:18;20.20;99.90
5059;DHT22;2548;52.050;11.036;2023-05-29T09:50:47;20.10;99.90
5059;DHT22;2548;52.050;11.036;2023-05-29T09:53:22;20.00;99.90
5059;DHT22;2548;52.050;11.036;2023-05-29T09:55:54;20.00;99.90
5059;DHT22;2548;52.050;11.036;2023-05-29T09:58:25;19.90;99.90
5059;DHT22;2548;52.050;11.036;2023-05-29T10:00:53;20.00;99.90
5059;DHT22;2548;52.050;11.036;2023-05-29T10:03:27;20.10;99.90
5059;DHT22;2548;52.050;11.036;2023-05-29T10:06:01;20.10;99.90
5059;DHT22;2548;52.050;11.036;2023-05-29T10:08:33;20.00;99.90
5059;DHT22;2548;52.050;11.036;2023-05-29T10:11:03;20.10;99.90
5059;DHT22;2548;52.050;11.036;2023-05-29T10:13:38;20.40;99.90
5059;DHT22;2548;52.050;11.036;2023-05-29T10:16:08;20.60;99.90
5059;DHT22;2548;52.050;11.036;2023-05-29T10:18:43;20.70;99.90
5059;DHT22;2548;52.050;11.036;2023-05-29T10:21:15;20.80;99.90
5059;DHT22;2548;52.050;11.036;2023-05-29T10:23:47;20.70;99.90
5059;DHT22;2548;52.050;11.036;2023-05-29T10:26:18;20.60;99.90
5059;DHT22;2548;52.050;11.036;2023-05-29T10:28:52;20.50;99.90
5059;DHT22;2548;52.050;11.036;2023-05-29T10:31:26;20.70;99.90
5059;DHT22;2548;52.050;11.036;2023-05-29T10:34:10;21.00;99.90
5059;DHT22;2548;52.050;11.036;2023-05-29T10:36:57;21.10;99.90
5059;DHT22;2548;52.050;11.036;2023-05-29T10:39:28;21.40;99.90
5059;DHT22;2548;52.050;11.036;2023-05-29T10:41:56;21.70;99.90
5059;DHT22;2548;52.050;11.036;2023-05-29T10:44:40;21.90;99.90
5059;DHT22;2548;52.050;11.036;2023-05-29T10:47:11;21.80;99.90
5059;DHT22;2548;52.050;11.036;2023-05-29T10:49:49;21.90;99.90
5059;DHT22;2548;52.050;11.036;2023-05-29T10:52:19;21.90;99.90
5059;DHT22;2548;52.050;11.036;2023-05-29T10:54:52;21.90;99.90
5059;DHT22;2548;52.050;11.036;2023-05-29T10:57:23;21.90;99.90
5059;DHT22;2548;52.050;11.036;2023-05-29T10:59:59;22.00;99.90
5059;DHT22;2548;52.050;11.036;2023-05-29T11:02:38;22.10;99.90
5059;DHT22;2548;52.050;11.036;2023-05-29T11:05:23;21.90;99.90
5059;DHT22;2548;52.050;11.036;2023-05-29T11:07:53;21.90;99.90
5059;DHT22;2548;52.050;11.036;2023-05-29T11:10:41;22.00;99.90
5059;DHT22;2548;52.050;11.036;2023-05-29T11:13:09;22.10;99.90
5059;DHT22;2548;52.050;11.036;2023-05-29T11:15:37;22.10;99.90
5059;DHT22;2548;52.050;11.036;2023-05-29T11:18:08;22.20;99.90
5059;DHT22;2548;52.050;11.036;2023-05-29T11:20:44;22.40;99.90
5059;DHT22;2548;52.050;11.036;2023-05-29T11:23:22;22.50;99.90
5059;DHT22;2548;52.050;11.036;2023-05-29T11:25:52;22.50;99.90
5059;DHT22;2548;52.050;11.036;2023-05-29T11:28:21;22.50;99.90
5059;DHT22;2548;52.050;11.036;2023-05-29T11:30:48;22.70;99.90
5059;DHT22;2548;52.050;11.036;2023-05-29T11:33:23;22.70;99.90
5059;DHT22;2548;52.050;11.036;2023-05-29T11:36:00;22.90;99.90
5059;DHT22;2548;52.050;11.036;2023-05-29T11:38:28;23.20;99.90
5059;DHT22;2548;52.050;11.036;2023-05-29T11:41:03;22.90;99.90
5059;DHT22;2548;52.050;11.036;2023-05-29T11:43:31;22.70;99.90
5059;DHT22;2548;52.050;11.036;2023-05-29T11:45:59;22.20;99.90
5059;DHT22;2548;52.050;11.036;2023-05-29T11:48:27;21.70;99.90
5059;DHT22;2548;52.050;11.036;2023-05-29T11:51:00;21.50;99.90
5059;DHT22;2548;52.050;11.036;2023-05-29T11:53:30;21.40;99.90
5059;DHT22;2548;52.050;11.036;2023-05-29T11:56:09;21.40;99.90
5059;DHT22;2548;52.050;11.036;2023-05-29T11:58:37;21.80;99.90
5059;DHT22;2548;52.050;11.036;2023-05-29T12:01:06;22.10;99.90
5059;DHT22;2548;52.050;11.036;2023-05-29T12:03:37;22.50;99.90
5059;DHT22;2548;52.050;11.036;2023-05-29T12:06:08;22.90;99.90
5059;DHT22;2548;52.050;11.036;2023-05-29T12:08:36;23.30;99.90
5059;DHT22;2548;52.050;11.036;2023-05-29T12:11:05;23.60;99.90
5059;DHT22;2548;52.050;11.036;2023-05-29T12:13:33;23.90;99.90
5059;DHT22;2548;52.050;11.036;2023-05-29T12:16:04;23.80;99.90
5059;DHT22;2548;52.050;11.036;2023-05-29T12:18:32;24.10;99.90
5059;DHT22;2548;52.050;11.036;2023-05-29T12:21:01;23.70;99.90
5059;DHT22;2548;52.050;11.036;2023-05-29T12:23:31;23.40;99.90
5059;DHT22;2548;52.050;11.036;2023-05-29T12:25:59;23.30;99.90
5059;DHT22;2548;52.050;11.036;2023-05-29T12:28:27;22.90;98.70
5059;DHT22;2548;52.050;11.036;2023-05-29T12:31:00;22.70;99.90
5059;DHT22;2548;52.050;11.036;2023-05-29T12:33:29;22.90;99.40
5059;DHT22;2548;52.050;11.036;2023-05-29T12:36:08;23.30;99.90
5059;DHT22;2548;52.050;11.036;2023-05-29T12:38:48;23.50;99.60
5059;DHT22;2548;52.050;11.036;2023-05-29T12:41:29;23.60;99.90
5059;DHT22;2548;52.050;11.036;2023-05-29T12:43:58;23.30;99.90
5059;DHT22;2548;52.050;11.036;2023-05-29T12:46:26;22.90;99.70
5059;DHT22;2548;52.050;11.036;2023-05-29T12:48:54;22.70;99.80
5059;DHT22;2548;52.050;11.036;2023-05-29T12:51:23;22.80;99.90
5059;DHT22;2548;52.050;11.036;2023-05-29T12:53:52;22.90;99.90
5059;DHT22;2548;52.050;11.036;2023-05-29T12:56:21;23.10;99.20
5059;DHT22;2548;52.050;11.036;2023-05-29T12:58:50;23.20;98.90
5059;DHT22;2548;52.050;11.036;2023-05-29T13:01:18;23.40;99.60
5059;DHT22;2548;52.050;11.036;2023-05-29T13:03:49;23.50;98.50
5059;DHT22;2548;52.050;11.036;2023-05-29T13:06:17;23.70;99.00
5059;DHT22;2548;52.050;11.036;2023-05-29T13:08:52;23.80;98.90
5059;DHT22;2548;52.050;11.036;2023-05-29T13:11:20;23.90;99.00
5059;DHT22;2548;52.050;11.036;2023-05-29T13:13:48;23.90;98.00
5059;DHT22;2548;52.050;11.036;2023-05-29T13:16:16;23.70;97.40
5059;DHT22;2548;52.050;11.036;2023-05-29T13:18:50;23.70;97.10
5059;DHT22;2548;52.050;11.036;2023-05-29T13:21:17;23.80;97.10
5059;DHT22;2548;52.050;11.036;2023-05-29T13:23:45;23.80;97.30
5059;DHT22;2548;52.050;11.036;2023-05-29T13:26:14;23.60;96.90
5059;DHT22;2548;52.050;11.036;2023-05-29T13:28:42;23.70;96.60
5059;DHT22;2548;52.050;11.036;2023-05-29T13:31:18;23.80;97.60
5059;DHT22;2548;52.050;11.036;2023-05-29T13:33:47;23.70;96.70
5059;DHT22;2548;52.050;11.036;2023-05-29T13:36:14;23.50;96.40
5059;DHT22;2548;52.050;11.036;2023-05-29T13:38:42;23.40;96.00
5059;DHT22;2548;52.050;11.036;2023-05-29T13:41:10;23.20;96.50
5059;DHT22;2548;52.050;11.036;2023-05-29T13:43:39;23.00;95.90
5059;DHT22;2548;52.050;11.036;2023-05-29T13:46:10;22.80;96.40
5059;DHT22;2548;52.050;11.036;2023-05-29T13:48:38;22.90;96.90
5059;DHT22;2548;52.050;11.036;2023-05-29T13:51:05;22.90;95.70
5059;DHT22;2548;52.050;11.036;2023-05-29T13:53:33;22.80;96.60
5059;DHT22;2548;52.050;11.036;2023-05-29T13:56:00;22.50;96.80
5059;DHT22;2548;52.050;11.036;2023-05-29T13:58:28;22.30;97.30
5059;DHT22;2548;52.050;11.036;2023-05-29T14:01:00;22.20;97.50
5059;DHT22;2548;52.050;11.036;2023-05-29T14:03:30;22.20;97.70
5059;DHT22;2548;52.050;11.036;2023-05-29T14:05:58;22.30;97.50
5059;DHT22;2548;52.050;11.036;2023-05-29T14:08:26;22.50;97.20
5059;DHT22;2548;52.050;11.036;2023-05-29T14:10:54;22.70;97.30
5059;DHT22;2548;52.050;11.036;2023-05-29T14:13:21;23.00;96.70
5059;DHT22;2548;52.050;11.036;2023-05-29T14:15:49;23.20;96.80
5059;DHT22;2548;52.050;11.036;2023-05-29T14:18:18;23.30;96.10
5059;DHT22;2548;52.050;11.036;2023-05-29T14:20:46;23.20;96.00
5059;DHT22;2548;52.050;11.036;2023-05-29T14:23:17;23.20;96.50
5059;DHT22;2548;52.050;11.036;2023-05-29T14:25:45;23.30;95.60
5059;DHT22;2548;52.050;11.036;2023-05-29T14:28:16;23.30;95.10
5059;DHT22;2548;52.050;11.036;2023-05-29T14:30:44;23.30;95.30
5059;DHT22;2548;52.050;11.036;2023-05-29T14:33:11;23.30;95.80
5059;DHT22;2548;52.050;11.036;2023-05-29T14:35:40;23.30;95.40
5059;DHT22;2548;52.050;11.036;2023-05-29T14:38:11;23.40;95.80
5059;DHT22;2548;52.050;11.036;2023-05-29T14:40:39;23.60;95.80
5059;DHT22;2548;52.050;11.036;2023-05-29T14:43:06;23.60;94.60
5059;DHT22;2548;52.050;11.036;2023-05-29T14:45:34;23.60;94.10
5059;DHT22;2548;52.050;11.036;2023-05-29T14:48:02;23.60;95.30
5059;DHT22;2548;52.050;11.036;2023-05-29T14:50:32;23.40;94.40
5059;DHT22;2548;52.050;11.036;2023-05-29T14:53:01;23.40;94.30
5059;DHT22;2548;52.050;11.036;2023-05-29T14:55:29;23.20;94.10
5059;DHT22;2548;52.050;11.036;2023-05-29T14:57:58;23.10;93.20
5059;DHT22;2548;52.050;11.036;2023-05-29T15:00:26;23.20;94.30
5059;DHT22;2548;52.050;11.036;2023-05-29T15:02:53;23.20;94.00
5059;DHT22;2548;52.050;11.036;2023-05-29T15:05:23;23.20;94.00
5059;DHT22;2548;52.050;11.036;2023-05-29T15:07:51;23.20;93.60
5059;DHT22;2548;52.050;11.036;2023-05-29T15:10:22;23.10;94.10
5059;DHT22;2548;52.050;11.036;2023-05-29T15:12:51;23.20;94.10
5059;DHT22;2548;52.050;11.036;2023-05-29T15:15:23;23.30;93.50
5059;DHT22;2548;52.050;11.036;2023-05-29T15:17:51;23.20;93.00
5059;DHT22;2548;52.050;11.036;2023-05-29T15:20:22;22.80;92.20
5059;DHT22;2548;52.050;11.036;2023-05-29T15:22:50;22.90;93.50
5059;DHT22;2548;52.050;11.036;2023-05-29T15:25:19;23.00;92.80
5059;DHT22;2548;52.050;11.036;2023-05-29T15:27:48;23.10;92.90
5059;DHT22;2548;52.050;11.036;2023-05-29T15:30:18;23.20;92.40
5059;DHT22;2548;52.050;11.036;2023-05-29T15:32:46;23.30;92.20
5059;DHT22;2548;52.050;11.036;2023-05-29T15:35:15;23.20;93.10
5059;DHT22;2548;52.050;11.036;2023-05-29T15:37:43;23.00;93.30
5059;DHT22;2548;52.050;11.036;2023-05-29T15:40:11;22.80;93.60
5059;DHT22;2548;52.050;11.036;2023-05-29T15:42:38;22.80;93.50
5059;DHT22;2548;52.050;11.036;2023-05-29T15:45:08;22.80;92.60
5059;DHT22;2548;52.050;11.036;2023-05-29T15:47:36;22.70;92.50
5059;DHT22;2548;52.050;11.036;2023-05-29T15:50:04;22.60;92.40
5059;DHT22;2548;52.050;11.036;2023-05-29T15:52:32;22.60;92.70
5059;DHT22;2548;52.050;11.036;2023-05-29T15:55:00;22.60;91.70
5059;DHT22;2548;52.050;11.036;2023-05-29T15:57:28;22.50;92.20
5059;DHT22;2548;52.050;11.036;2023-05-29T15:59:55;22.50;93.10